sensor_id;sensor_type;location;lat;lon;timestamp;temperature;humidity
75210;DHT22;63796;53.136;14.882;2023-06-05T00:00:02;11.10;99.90
75210;DHT22;63796;53.136;14.882;2023-06-05T00:02:34;11.00;99.90
75210;DHT22;63796;53.136;14.882;2023-06-05T00:05:01;11.00;99.90
75210;DHT22;63796;53.136;14.882;2023-06-05T00:07:30;11.00;99.90
75210;DHT22;63796;53.136;14.882;2023-06-05T00:09:57;10.80;99.90
75210;DHT22;63796;53.136;14.882;2023-06-05T00:12:24;10.70;99.90
75210;DHT22;63796;53.136;14.882;2023-06-05T00:14:52;10.60;99.90
75210;DHT22;63796;53.136;14.882;2023-06-05T00:17:19;10.50;99.90
75210;DHT22;63796;53.136;14.882;2023-06-05T00:19:47;10.50;99.90
75210;DHT22;63796;53.136;14.882;2023-06-05T00:22:14;10.30;99.90
75210;DHT22;63796;53.136;14.882;2023-06-05T00:24:41;10.30;99.90
75210;DHT22;63796;53.136;14.882;2023-06-05T00:27:08;10.30;99.90
75210;DHT22;63796;53.136;14.882;2023-06-05T00:29:36;10.30;99.90
75210;DHT22;63796;53.136;14.882;2023-06-05T00:32:03;10.50;99.90
75210;DHT22;63796;53.136;14.882;2023-06-05T00:34:30;10.50;99.90
75210;DHT22;63796;53.136;14.882;2023-06-05T00:36:58;10.50;99.90
75210;DHT22;63796;53.136;14.882;2023-06-05T00:39:25;10.40;99.90
75210;DHT22;63796;53.136;14.882;2023-06-05T00:41:52;10.40;99.90
75210;DHT22;63796;53.136;14.882;2023-06-05T00:44:20;10.50;99.90
75210;DHT22;63796;53.136;14.882;2023-06-05T00:46:47;10.30;99.90
75210;DHT22;63796;53.136;14.882;2023-06-05T00:49:15;10.40;99.90
75210;DHT22;63796;53.136;14.882;2023-06-05T00:51:43;10.30;99.90
75210;DHT22;63796;53.136;14.882;2023-06-05T00:54:12;10.10;99.90
75210;DHT22;63796;53.136;14.882;2023-06-05T00:56:43;10.10;99.90
75210;DHT22;63796;53.136;14.882;2023-06-05T00:59:11;9.90;99.90
75210;DHT22;63796;53.136;14.882;2023-06-05T01:01:40;9.80;99.90
75210;DHT22;63796;53.136;14.882;2023-06-05T01:04:10;9.80;99.90
75210;DHT22;63796;53.136;14.882;2023-06-05T01:06:37;9.70;99.90
75210;DHT22;63796;53.136;14.882;2023-06-05T01:09:08;9.80;99.90
75210;DHT22;63796;53.136;14.882;2023-06-05T01:14:38;9.90;99.90
75210;DHT22;63796;53.136;14.882;2023-06-05T01:17:13;9.80;99.90
75210;DHT22;63796;53.136;14.882;2023-06-05T01:19:40;10.00;99.90
75210;DHT22;63796;53.136;14.882;2023-06-05T01:22:07;10.10;99.90
75210;DHT22;63796;53.136;14.882;2023-06-05T01:24:34;10.30;99.90
75210;DHT22;63796;53.136;14.882;2023-06-05T01:27:15;10.40;99.90
75210;DHT22;63796;53.136;14.882;2023-06-05T01:33:08;10.40;99.90
75210;DHT22;63796;53.136;14.882;2023-06-05T01:35:32;10.40;99.90
75210;DHT22;63796;53.136;14.882;2023-06-05T01:38:01;10.40;99.90
75210;DHT22;63796;53.136;14.882;2023-06-05T01:40:33;10.30;99.90
75210;DHT22;63796;53.136;14.882;2023-06-05T01:43:02;10.30;99.90
75210;DHT22;63796;53.136;14.882;2023-06-05T01:45:32;10.20;99.90
75210;DHT22;63796;53.136;14.882;2023-06-05T01:48:01;10.10;99.90
75210;DHT22;63796;53.136;14.882;2023-06-05T01:50:33;10.20;99.90
75210;DHT22;63796;53.136;14.882;2023-06-05T01:53:00;10.10;99.90
75210;DHT22;63796;53.136;14.882;2023-06-05T01:55:28;9.80;99.90
75210;DHT22;63796;53.136;14.882;2023-06-05T01:57:56;9.80;99.90
75210;DHT22;63796;53.136;14.882;2023-06-05T02:00:23;9.60;99.90
75210;DHT22;63796;53.136;14.882;2023-06-05T02:02:51;9.60;99.90
75210;DHT22;63796;53.136;14.882;2023-06-05T02:05:18;9.60;99.90
75210;DHT22;63796;53.136;14.882;2023-06-05T02:07:49;9.50;99.90
75210;DHT22;63796;53.136;14.882;2023-06-05T02:10:21;9.40;99.90
75210;DHT22;63796;53.136;14.882;2023-06-05T02:12:48;9.40;99.90
75210;DHT22;63796;53.136;14.882;2023-06-05T02:15:15;9.40;99.90
75210;DHT22;63796;53.136;14.882;2023-06-05T02:17:43;9.40;99.90
75210;DHT22;63796;53.136;14.882;2023-06-05T02:20:25;9.30;99.90
75210;DHT22;63796;53.136;14.882;2023-06-05T02:22:52;9.30;99.90
75210;DHT22;63796;53.136;14.882;2023-06-05T02:25:21;9.10;99.90
75210;DHT22;63796;53.136;14.882;2023-06-05T02:27:53;9.00;99.90
75210;DHT22;63796;53.136;14.882;2023-06-05T02:30:21;8.90;99.90
75210;DHT22;63796;53.136;14.882;2023-06-05T02:32:49;8.80;99.90
75210;DHT22;63796;53.136;14.882;2023-06-05T02:35:23;8.70;99.90
75210;DHT22;63796;53.136;14.882;2023-06-05T02:37:51;8.80;99.90
75210;DHT22;63796;53.136;14.882;2023-06-05T02:40:19;9.00;99.90
75210;DHT22;63796;53.136;14.882;2023-06-05T02:42:46;9.10;99.90
75210;DHT22;63796;53.136;14.882;2023-06-05T02:45:14;9.10;99.90
75210;DHT22;63796;53.136;14.882;2023-06-05T02:47:41;9.20;99.90
75210;DHT22;63796;53.136;14.882;2023-06-05T02:50:08;9.10;99.90
75210;DHT22;63796;53.136;14.882;2023-06-05T02:52:35;9.10;99.90
75210;DHT22;63796;53.136;14.882;2023-06-05T02:55:05;9.00;99.90
75210;DHT22;63796;53.136;14.882;2023-06-05T02:57:34;8.70;99.90
75210;DHT22;63796;53.136;14.882;2023-06-05T03:00:09;8.50;99.90
75210;DHT22;63796;53.136;14.882;2023-06-05T03:02:41;8.70;99.90
75210;DHT22;63796;53.136;14.882;2023-06-05T03:05:09;8.80;99.90
75210;DHT22;63796;53.136;14.882;2023-06-05T03:07:37;8.90;99.90
75210;DHT22;63796;53.136;14.882;2023-06-05T03:10:04;9.10;99.90
75210;DHT22;63796;53.136;14.882;2023-06-05T03:12:32;9.10;99.90
75210;DHT22;63796;53.136;14.882;2023-06-05T03:14:59;9.00;99.90
75210;DHT22;63796;53.136;14.882;2023-06-05T03:17:27;9.20;99.90
75210;DHT22;63796;53.136;14.882;2023-06-05T03:19:55;9.20;99.90
75210;DHT22;63796;53.136;14.882;2023-06-05T03:22:22;9.40;99.90
75210;DHT22;63796;53.136;14.882;2023-06-05T03:24:51;9.40;99.90
75210;DHT22;63796;53.136;14.882;2023-06-05T03:27:18;9.50;99.90
75210;DHT22;63796;53.136;14.882;2023-06-05T03:29:45;9.30;99.90
75210;DHT22;63796;53.136;14.882;2023-06-05T03:32:13;9.10;99.90
75210;DHT22;63796;53.136;14.882;2023-06-05T03:34:40;9.20;99.90
75210;DHT22;63796;53.136;14.882;2023-06-05T03:37:09;9.50;99.90
75210;DHT22;63796;53.136;14.882;2023-06-05T03:39:36;9.60;99.90
75210;DHT22;63796;53.136;14.882;2023-06-05T03:42:07;9.70;99.90
75210;DHT22;63796;53.136;14.882;2023-06-05T03:44:36;9.70;99.90
75210;DHT22;63796;53.136;14.882;2023-06-05T03:47:03;9.80;99.90
75210;DHT22;63796;53.136;14.882;2023-06-05T03:49:31;9.90;99.90
75210;DHT22;63796;53.136;14.882;2023-06-05T03:51:58;10.10;99.90
75210;DHT22;63796;53.136;14.882;2023-06-05T03:54:29;10.40;99.90
75210;DHT22;63796;53.136;14.882;2023-06-05T03:56:59;10.60;99.90
75210;DHT22;63796;53.136;14.882;2023-06-05T03:59:27;10.60;99.90
75210;DHT22;63796;53.136;14.882;2023-06-05T04:01:55;10.90;99.90
75210;DHT22;63796;53.136;14.882;2023-06-05T04:04:23;11.10;99.90
75210;DHT22;63796;53.136;14.882;2023-06-05T04:06:53;11.30;99.90
75210;DHT22;63796;53.136;14.882;2023-06-05T04:09:21;11.40;99.90
75210;DHT22;63796;53.136;14.882;2023-06-05T04:11:49;11.60;99.90
75210;DHT22;63796;53.136;14.882;2023-06-05T04:14:17;11.90;99.90
75210;DHT22;63796;53.136;14.882;2023-06-05T04:16:44;12.30;99.90
75210;DHT22;63796;53.136;14.882;2023-06-05T04:19:12;12.80;99.90
75210;DHT22;63796;53.136;14.882;2023-06-05T04:21:39;13.60;99.90
75210;DHT22;63796;53.136;14.882;2023-06-05T04:24:07;14.60;99.90
75210;DHT22;63796;53.136;14.882;2023-06-05T04:26:37;15.40;99.90
75210;DHT22;63796;53.136;14.882;2023-06-05T04:29:05;16.10;99.90
75210;DHT22;63796;53.136;14.882;2023-06-05T04:31:36;16.90;99.90
75210;DHT22;63796;53.136;14.882;2023-06-05T04:34:07;17.60;99.90
75210;DHT22;63796;53.136;14.882;2023-06-05T04:36:35;18.10;99.90
75210;DHT22;63796;53.136;14.882;2023-06-05T04:39:03;18.40;99.90
75210;DHT22;63796;53.136;14.882;2023-06-05T04:41:31;19.10;99.90
75210;DHT22;63796;53.136;14.882;2023-06-05T04:43:59;19.60;99.90
75210;DHT22;63796;53.136;14.882;2023-06-05T04:46:26;20.00;99.90
75210;DHT22;63796;53.136;14.882;2023-06-05T04:48:54;20.40;99.90
75210;DHT22;63796;53.136;14.882;2023-06-05T04:51:24;20.50;99.90
75210;DHT22;63796;53.136;14.882;2023-06-05T04:53:51;20.60;99.90
75210;DHT22;63796;53.136;14.882;2023-06-05T04:56:19;19.90;99.90
75210;DHT22;63796;53.136;14.882;2023-06-05T04:58:50;18.00;99.90
75210;DHT22;63796;53.136;14.882;2023-06-05T05:01:18;16.90;99.90
75210;DHT22;63796;53.136;14.882;2023-06-05T05:03:46;16.50;99.90
75210;DHT22;63796;53.136;14.882;2023-06-05T05:06:15;16.50;99.90
75210;DHT22;63796;53.136;14.882;2023-06-05T05:08:43;16.50;99.90
75210;DHT22;63796;53.136;14.882;2023-06-05T05:11:13;16.40;99.90
75210;DHT22;63796;53.136;14.882;2023-06-05T05:13:40;16.60;99.90
75210;DHT22;63796;53.136;14.882;2023-06-05T05:16:09;16.70;99.90
75210;DHT22;63796;53.136;14.882;2023-06-05T05:18:39;16.70;99.90
75210;DHT22;63796;53.136;14.882;2023-06-05T05:21:08;16.90;99.90
75210;DHT22;63796;53.136;14.882;2023-06-05T05:23:35;17.00;99.90
75210;DHT22;63796;53.136;14.882;2023-06-05T05:26:02;17.20;99.90
75210;DHT22;63796;53.136;14.882;2023-06-05T05:28:30;17.50;99.90
75210;DHT22;63796;53.136;14.882;2023-06-05T05:30:58;17.90;99.90
75210;DHT22;63796;53.136;14.882;2023-06-05T05:33:27;18.10;99.90
75210;DHT22;63796;53.136;14.882;2023-06-05T05:35:54;18.30;99.90
75210;DHT22;63796;53.136;14.882;2023-06-05T05:38:22;19.00;99.90
75210;DHT22;63796;53.136;14.882;2023-06-05T05:40:49;20.80;99.90
75210;DHT22;63796;53.136;14.882;2023-06-05T05:43:19;23.60;98.30
75210;DHT22;63796;53.136;14.882;2023-06-05T05:45:46;25.70;93.00
75210;DHT22;63796;53.136;14.882;2023-06-05T05:48:13;27.00;88.00
75210;DHT22;63796;53.136;14.882;2023-06-05T05:50:41;27.70;83.40
75210;DHT22;63796;53.136;14.882;2023-06-05T05:53:08;28.20;79.70
75210;DHT22;63796;53.136;14.882;2023-06-05T05:55:35;28.60;77.20
75210;DHT22;63796;53.136;14.882;2023-06-05T05:58:02;27.60;76.90
75210;DHT22;63796;53.136;14.882;2023-06-05T06:00:29;26.90;78.50
75210;DHT22;63796;53.136;14.882;2023-06-05T06:02:57;24.00;86.20
75210;DHT22;63796;53.136;14.882;2023-06-05T06:05:24;22.40;91.20
75210;DHT22;63796;53.136;14.882;2023-06-05T06:07:51;21.60;93.30
75210;DHT22;63796;53.136;14.882;2023-06-05T06:10:19;21.70;93.40
75210;DHT22;63796;53.136;14.882;2023-06-05T06:12:46;21.50;93.90
75210;DHT22;63796;53.136;14.882;2023-06-05T06:15:13;21.10;94.00
75210;DHT22;63796;53.136;14.882;2023-06-05T06:17:41;21.50;95.20
75210;DHT22;63796;53.136;14.882;2023-06-05T06:20:08;21.90;94.30
75210;DHT22;63796;53.136;14.882;2023-06-05T06:22:40;23.10;92.50
75210;DHT22;63796;53.136;14.882;2023-06-05T06:25:08;27.30;84.70
75210;DHT22;63796;53.136;14.882;2023-06-05T06:27:37;31.10;73.80
75210;DHT22;63796;53.136;14.882;2023-06-05T06:30:05;32.90;66.00
75210;DHT22;63796;53.136;14.882;2023-06-05T06:32:34;33.30;62.50
75210;DHT22;63796;53.136;14.882;2023-06-05T06:35:01;33.30;59.30
75210;DHT22;63796;53.136;14.882;2023-06-05T06:37:29;32.10;60.90
75210;DHT22;63796;53.136;14.882;2023-06-05T06:39:56;33.20;59.80
75210;DHT22;63796;53.136;14.882;2023-06-05T06:42:24;34.70;58.40
75210;DHT22;63796;53.136;14.882;2023-06-05T06:44:51;35.00;57.60
75210;DHT22;63796;53.136;14.882;2023-06-05T06:47:23;35.20;56.70
75210;DHT22;63796;53.136;14.882;2023-06-05T06:49:52;35.60;55.00
75210;DHT22;63796;53.136;14.882;2023-06-05T06:52:20;35.30;54.60
75210;DHT22;63796;53.136;14.882;2023-06-05T06:54:51;34.70;55.00
75210;DHT22;63796;53.136;14.882;2023-06-05T06:57:18;34.70;55.30
75210;DHT22;63796;53.136;14.882;2023-06-05T06:59:45;34.10;55.10
75210;DHT22;63796;53.136;14.882;2023-06-05T07:02:14;35.70;55.00
75210;DHT22;63796;53.136;14.882;2023-06-05T07:04:45;35.90;54.70
75210;DHT22;63796;53.136;14.882;2023-06-05T07:07:14;35.70;54.90
75210;DHT22;63796;53.136;14.882;2023-06-05T07:09:44;35.70;54.80
75210;DHT22;63796;53.136;14.882;2023-06-05T07:12:13;36.70;52.90
75210;DHT22;63796;53.136;14.882;2023-06-05T07:14:41;37.10;53.10
75210;DHT22;63796;53.136;14.882;2023-06-05T07:17:08;37.30;53.00
75210;DHT22;63796;53.136;14.882;2023-06-05T07:19:36;37.30;52.70
75210;DHT22;63796;53.136;14.882;2023-06-05T07:22:03;36.90;53.20
75210;DHT22;63796;53.136;14.882;2023-06-05T07:24:32;37.70;52.20
75210;DHT22;63796;53.136;14.882;2023-06-05T07:27:05;37.30;52.00
75210;DHT22;63796;53.136;14.882;2023-06-05T07:29:32;36.70;51.70
75210;DHT22;63796;53.136;14.882;2023-06-05T07:32:00;36.00;52.00
75210;DHT22;63796;53.136;14.882;2023-06-05T07:34:33;36.90;52.50
75210;DHT22;63796;53.136;14.882;2023-06-05T07:37:01;37.50;52.00
75210;DHT22;63796;53.136;14.882;2023-06-05T07:39:29;37.00;51.40
75210;DHT22;63796;53.136;14.882;2023-06-05T07:41:57;36.90;52.40
75210;DHT22;63796;53.136;14.882;2023-06-05T07:44:24;38.20;51.80
75210;DHT22;63796;53.136;14.882;2023-06-05T07:46:51;39.10;50.40
75210;DHT22;63796;53.136;14.882;2023-06-05T07:49:19;38.50;50.50
75210;DHT22;63796;53.136;14.882;2023-06-05T07:51:46;38.50;50.90
75210;DHT22;63796;53.136;14.882;2023-06-05T07:54:16;38.40;49.80
75210;DHT22;63796;53.136;14.882;2023-06-05T07:56:43;37.50;49.50
75210;DHT22;63796;53.136;14.882;2023-06-05T07:59:16;38.60;50.30
75210;DHT22;63796;53.136;14.882;2023-06-05T08:01:44;39.30;50.40
75210;DHT22;63796;53.136;14.882;2023-06-05T08:04:12;39.00;49.30
75210;DHT22;63796;53.136;14.882;2023-06-05T08:06:39;38.20;49.70
75210;DHT22;63796;53.136;14.882;2023-06-05T08:09:08;37.30;50.00
75210;DHT22;63796;53.136;14.882;2023-06-05T08:11:36;38.90;50.40
75210;DHT22;63796;53.136;14.882;2023-06-05T08:14:04;39.60;48.40
75210;DHT22;63796;53.136;14.882;2023-06-05T08:16:35;40.00;48.40
75210;DHT22;63796;53.136;14.882;2023-06-05T08:19:03;40.40;47.10
75210;DHT22;63796;53.136;14.882;2023-06-05T08:21:30;40.30;48.10
75210;DHT22;63796;53.136;14.882;2023-06-05T08:23:57;41.40;48.60
75210;DHT22;63796;53.136;14.882;2023-06-05T08:26:25;41.30;46.70
75210;DHT22;63796;53.136;14.882;2023-06-05T08:28:52;41.70;47.00
75210;DHT22;63796;53.136;14.882;2023-06-05T08:31:20;39.80;46.70
75210;DHT22;63796;53.136;14.882;2023-06-05T08:33:47;40.30;47.20
75210;DHT22;63796;53.136;14.882;2023-06-05T08:36:15;41.00;44.30
75210;DHT22;63796;53.136;14.882;2023-06-05T08:38:43;41.40;45.00
75210;DHT22;63796;53.136;14.882;2023-06-05T08:41:12;41.40;44.80
75210;DHT22;63796;53.136;14.882;2023-06-05T08:43:40;40.10;45.90
75210;DHT22;63796;53.136;14.882;2023-06-05T08:46:09;41.70;44.60
75210;DHT22;63796;53.136;14.882;2023-06-05T08:48:45;42.10;44.40
75210;DHT22;63796;53.136;14.882;2023-06-05T08:51:14;41.50;45.00
75210;DHT22;63796;53.136;14.882;2023-06-05T08:53:46;41.60;45.10
75210;DHT22;63796;53.136;14.882;2023-06-05T08:56:18;41.20;45.40
75210;DHT22;63796;53.136;14.882;2023-06-05T08:58:46;40.90;45.40
75210;DHT22;63796;53.136;14.882;2023-06-05T09:01:15;39.50;45.90
75210;DHT22;63796;53.136;14.882;2023-06-05T09:03:43;39.30;44.80
75210;DHT22;63796;53.136;14.882;2023-06-05T09:06:11;40.60;45.00
75210;DHT22;63796;53.136;14.882;2023-06-05T09:08:38;40.50;45.20
75210;DHT22;63796;53.136;14.882;2023-06-05T09:13:54;42.20;43.90
75210;DHT22;63796;53.136;14.882;2023-06-05T09:16:31;41.70;42.70
75210;DHT22;63796;53.136;14.882;2023-06-05T09:19:10;42.50;42.60
75210;DHT22;63796;53.136;14.882;2023-06-05T09:21:38;43.50;42.60
75210;DHT22;63796;53.136;14.882;2023-06-05T09:24:17;43.10;42.40
75210;DHT22;63796;53.136;14.882;2023-06-05T09:29:27;43.50;42.80
75210;DHT22;63796;53.136;14.882;2023-06-05T09:32:02;42.00;42.90
75210;DHT22;63796;53.136;14.882;2023-06-05T09:34:31;40.60;44.00
75210;DHT22;63796;53.136;14.882;2023-06-05T09:37:06;41.70;43.60
75210;DHT22;63796;53.136;14.882;2023-06-05T09:39:36;41.90;43.10
75210;DHT22;63796;53.136;14.882;2023-06-05T09:42:04;40.70;43.50
75210;DHT22;63796;53.136;14.882;2023-06-05T09:44:33;42.10;43.00
75210;DHT22;63796;53.136;14.882;2023-06-05T09:47:08;42.80;42.20
75210;DHT22;63796;53.136;14.882;2023-06-05T09:52:08;40.90;43.40
75210;DHT22;63796;53.136;14.882;2023-06-05T09:54:38;42.40;43.20
75210;DHT22;63796;53.136;14.882;2023-06-05T09:57:08;44.50;42.00
75210;DHT22;63796;53.136;14.882;2023-06-05T09:59:53;44.40;41.20
75210;DHT22;63796;53.136;14.882;2023-06-05T10:02:25;40.40;43.70
75210;DHT22;63796;53.136;14.882;2023-06-05T10:05:00;40.70;43.10
75210;DHT22;63796;53.136;14.882;2023-06-05T10:07:31;41.70;42.60
75210;DHT22;63796;53.136;14.882;2023-06-05T10:09:59;43.50;42.40
75210;DHT22;63796;53.136;14.882;2023-06-05T10:12:27;44.50;42.10
75210;DHT22;63796;53.136;14.882;2023-06-05T10:15:02;43.20;41.20
75210;DHT22;63796;53.136;14.882;2023-06-05T10:17:32;42.40;42.20
75210;DHT22;63796;53.136;14.882;2023-06-05T10:20:00;41.80;41.90
75210;DHT22;63796;53.136;14.882;2023-06-05T10:22:28;41.00;42.60
75210;DHT22;63796;53.136;14.882;2023-06-05T10:25:00;42.40;42.10
75210;DHT22;63796;53.136;14.882;2023-06-05T10:33:05;43.30;40.90
75210;DHT22;63796;53.136;14.882;2023-06-05T10:35:45;44.80;40.70
75210;DHT22;63796;53.136;14.882;2023-06-05T10:38:17;44.20;39.90
75210;DHT22;63796;53.136;14.882;2023-06-05T10:40:54;43.20;40.40
75210;DHT22;63796;53.136;14.882;2023-06-05T10:49:16;43.70;40.30
75210;DHT22;63796;53.136;14.882;2023-06-05T10:51:47;40.40;42.60
75210;DHT22;63796;53.136;14.882;2023-06-05T10:59:32;41.20;41.50
75210;DHT22;63796;53.136;14.882;2023-06-05T11:07:18;38.00;43.00
75210;DHT22;63796;53.136;14.882;2023-06-05T11:15:13;41.30;40.00
75210;DHT22;63796;53.136;14.882;2023-06-05T11:17:42;41.70;41.70
75210;DHT22;63796;53.136;14.882;2023-06-05T11:28:06;39.50;41.20
75210;DHT22;63796;53.136;14.882;2023-06-05T11:30:41;38.50;42.20
75210;DHT22;63796;53.136;14.882;2023-06-05T11:33:16;36.50;44.40
75210;DHT22;63796;53.136;14.882;2023-06-05T11:35:48;37.90;43.10
75210;DHT22;63796;53.136;14.882;2023-06-05T11:38:17;39.90;42.90
75210;DHT22;63796;53.136;14.882;2023-06-05T11:40:50;41.20;41.80
75210;DHT22;63796;53.136;14.882;2023-06-05T11:43:17;41.10;41.40
75210;DHT22;63796;53.136;14.882;2023-06-05T11:45:54;39.70;41.50
75210;DHT22;63796;53.136;14.882;2023-06-05T11:48:23;39.50;42.10
75210;DHT22;63796;53.136;14.882;2023-06-05T11:53:21;39.90;42.20
75210;DHT22;63796;53.136;14.882;2023-06-05T11:55:48;40.10;41.60
75210;DHT22;63796;53.136;14.882;2023-06-05T11:58:28;37.30;42.60
75210;DHT22;63796;53.136;14.882;2023-06-05T12:01:31;35.50;44.30
75210;DHT22;63796;53.136;14.882;2023-06-05T12:04:05;34.80;45.60
75210;DHT22;63796;53.136;14.882;2023-06-05T12:06:44;31.70;50.10
75210;DHT22;63796;53.136;14.882;2023-06-05T12:09:15;30.10;50.50
75210;DHT22;63796;53.136;14.882;2023-06-05T12:11:43;29.90;51.10
75210;DHT22;63796;53.136;14.882;2023-06-05T12:14:13;29.80;50.80
75210;DHT22;63796;53.136;14.882;2023-06-05T12:16:55;28.80;51.00
75210;DHT22;63796;53.136;14.882;2023-06-05T12:19:26;28.40;52.10
75210;DHT22;63796;53.136;14.882;2023-06-05T12:22:00;28.70;53.20
75210;DHT22;63796;53.136;14.882;2023-06-05T12:24:32;28.80;51.70
75210;DHT22;63796;53.136;14.882;2023-06-05T12:27:01;29.30;50.40
75210;DHT22;63796;53.136;14.882;2023-06-05T12:29:32;29.70;51.00
75210;DHT22;63796;53.136;14.882;2023-06-05T12:32:01;30.50;50.60
75210;DHT22;63796;53.136;14.882;2023-06-05T12:34:43;30.10;50.90
75210;DHT22;63796;53.136;14.882;2023-06-05T12:37:21;29.20;51.40
75210;DHT22;63796;53.136;14.882;2023-06-05T12:39:57;29.00;51.40
75210;DHT22;63796;53.136;14.882;2023-06-05T12:42:26;27.60;52.20
75210;DHT22;63796;53.136;14.882;2023-06-05T12:44:54;27.70;53.60
75210;DHT22;63796;53.136;14.882;2023-06-05T12:47:22;27.50;53.60
75210;DHT22;63796;53.136;14.882;2023-06-05T12:49:49;28.10;53.60
75210;DHT22;63796;53.136;14.882;2023-06-05T12:52:16;29.30;53.60
75210;DHT22;63796;53.136;14.882;2023-06-05T12:54:45;29.80;51.90
75210;DHT22;63796;53.136;14.882;2023-06-05T12:57:13;29.10;51.60
75210;DHT22;63796;53.136;14.882;2023-06-05T12:59:40;28.80;52.90
75210;DHT22;63796;53.136;14.882;2023-06-05T13:02:08;29.00;52.50
75210;DHT22;63796;53.136;14.882;2023-06-05T13:04:35;28.40;53.30
75210;DHT22;63796;53.136;14.882;2023-06-05T13:07:03;27.60;53.10
75210;DHT22;63796;53.136;14.882;2023-06-05T13:09:31;28.00;52.10
75210;DHT22;63796;53.136;14.882;2023-06-05T13:12:00;28.40;52.20
75210;DHT22;63796;53.136;14.882;2023-06-05T13:14:29;29.10;53.00
75210;DHT22;63796;53.136;14.882;2023-06-05T13:16:59;29.40;52.90
75210;DHT22;63796;53.136;14.882;2023-06-05T13:19:27;28.90;51.90
75210;DHT22;63796;53.136;14.882;2023-06-05T13:21:54;28.40;52.70
75210;DHT22;63796;53.136;14.882;2023-06-05T13:24:22;28.50;52.30
75210;DHT22;63796;53.136;14.882;2023-06-05T13:26:49;28.10;52.10
75210;DHT22;63796;53.136;14.882;2023-06-05T13:29:16;27.90;53.20
75210;DHT22;63796;53.136;14.882;2023-06-05T13:31:43;27.40;53.20
75210;DHT22;63796;53.136;14.882;2023-06-05T13:34:11;27.50;53.20
75210;DHT22;63796;53.136;14.882;2023-06-05T13:36:39;27.10;53.50
75210;DHT22;63796;53.136;14.882;2023-06-05T13:39:06;26.50;53.60
75210;DHT22;63796;53.136;14.882;2023-06-05T13:41:34;26.60;53.70
75210;DHT22;63796;53.136;14.882;2023-06-05T13:44:02;27.20;53.20
75210;DHT22;63796;53.136;14.882;2023-06-05T13:46:29;27.80;52.80
75210;DHT22;63796;53.136;14.882;2023-06-05T13:48:56;28.30;52.60
75210;DHT22;63796;53.136;14.882;2023-06-05T13:51:27;28.40;52.00
75210;DHT22;63796;53.136;14.882;2023-06-05T13:53:54;28.30;52.50
75210;DHT22;63796;53.136;14.882;2023-06-05T13:56:24;27.70;53.20
75210;DHT22;63796;53.136;14.882;2023-06-05T13:58:52;27.80;55.50
75210;DHT22;63796;53.136;14.882;2023-06-05T14:01:19;28.40;54.00
75210;DHT22;63796;53.136;14.882;2023-06-05T14:03:47;28.20;52.80
75210;DHT22;63796;53.136;14.882;2023-06-05T14:06:18;26.60;53.00
75210;DHT22;63796;53.136;14.882;2023-06-05T14:08:46;26.10;54.20
75210;DHT22;63796;53.136;14.882;2023-06-05T14:11:13;26.30;53.60
75210;DHT22;63796;53.136;14.882;2023-06-05T14:13:40;26.00;53.80
75210;DHT22;63796;53.136;14.882;2023-06-05T14:16:08;26.00;53.90
75210;DHT22;63796;53.136;14.882;2023-06-05T14:18:39;25.90;54.60
75210;DHT22;63796;53.136;14.882;2023-06-05T14:21:06;26.20;55.40
75210;DHT22;63796;53.136;14.882;2023-06-05T14:23:34;26.90;54.30
75210;DHT22;63796;53.136;14.882;2023-06-05T14:26:01;27.10;53.20
75210;DHT22;63796;53.136;14.882;2023-06-05T14:28:28;27.00;54.00
75210;DHT22;63796;53.136;14.882;2023-06-05T14:30:55;26.90;54.20
75210;DHT22;63796;53.136;14.882;2023-06-05T14:33:22;27.20;54.00
75210;DHT22;63796;53.136;14.882;2023-06-05T14:35:50;26.50;52.90
75210;DHT22;63796;53.136;14.882;2023-06-05T14:38:17;26.20;53.40
75210;DHT22;63796;53.136;14.882;2023-06-05T14:40:45;26.30;53.70
75210;DHT22;63796;53.136;14.882;2023-06-05T14:43:12;26.50;53.40
75210;DHT22;63796;53.136;14.882;2023-06-05T14:45:39;26.70;53.30
75210;DHT22;63796;53.136;14.882;2023-06-05T14:48:08;27.00;53.50
75210;DHT22;63796;53.136;14.882;2023-06-05T14:50:37;26.80;53.40
75210;DHT22;63796;53.136;14.882;2023-06-05T14:53:05;26.40;53.20
75210;DHT22;63796;53.136;14.882;2023-06-05T14:55:32;26.30;53.30
75210;DHT22;63796;53.136;14.882;2023-06-05T14:57:59;26.30;53.30
75210;DHT22;63796;53.136;14.882;2023-06-05T15:00:26;26.20;53.50
75210;DHT22;63796;53.136;14.882;2023-06-05T15:02:53;26.30;53.60
75210;DHT22;63796;53.136;14.882;2023-06-05T15:05:21;26.20;53.50
75210;DHT22;63796;53.136;14.882;2023-06-05T15:07:48;26.60;54.20
75210;DHT22;63796;53.136;14.882;2023-06-05T15:10:15;26.20;53.00
75210;DHT22;63796;53.136;14.882;2023-06-05T15:12:43;26.00;53.30
75210;DHT22;63796;53.136;14.882;2023-06-05T15:15:10;26.30;53.50
75210;DHT22;63796;53.136;14.882;2023-06-05T15:17:40;26.30;53.60
75210;DHT22;63796;53.136;14.882;2023-06-05T15:20:08;25.80;53.60
75210;DHT22;63796;53.136;14.882;2023-06-05T15:22:36;25.80;53.70
75210;DHT22;63796;53.136;14.882;2023-06-05T15:25:03;25.90;53.90
75210;DHT22;63796;53.136;14.882;2023-06-05T15:27:30;25.90;54.20
75210;DHT22;63796;53.136;14.882;2023-06-05T15:29:59;26.00;54.80
75210;DHT22;63796;53.136;14.882;2023-06-05T15:32:26;25.90;53.40
75210;DHT22;63796;53.136;14.882;2023-06-05T15:34:53;26.20;54.20
75210;DHT22;63796;53.136;14.882;2023-06-05T15:37:21;26.20;54.50
75210;DHT22;63796;53.136;14.882;2023-06-05T15:39:50;26.40;53.00
75210;DHT22;63796;53.136;14.882;2023-06-05T15:42:19;26.30;53.00
75210;DHT22;63796;53.136;14.882;2023-06-05T15:45:04;26.10;53.90
75210;DHT22;63796;53.136;14.882;2023-06-05T15:47:39;26.00;54.10
75210;DHT22;63796;53.136;14.882;2023-06-05T15:50:07;25.70;54.10
75210;DHT22;63796;53.136;14.882;2023-06-05T15:52:36;25.50;53.90
75210;DHT22;63796;53.136;14.882;2023-06-05T15:55:05;25.60;54.10
75210;DHT22;63796;53.136;14.882;2023-06-05T15:57:32;25.60;54.30
75210;DHT22;63796;53.136;14.882;2023-06-05T16:00:00;25.80;54.50
75210;DHT22;63796;53.136;14.882;2023-06-05T16:02:27;25.80;54.20
75210;DHT22;63796;53.136;14.882;2023-06-05T16:04:57;25.80;55.20
75210;DHT22;63796;53.136;14.882;2023-06-05T16:07:24;25.60;54.10
75210;DHT22;63796;53.136;14.882;2023-06-05T16:09:54;25.50;54.10
75210;DHT22;63796;53.136;14.882;2023-06-05T16:12:21;25.50;55.20
75210;DHT22;63796;53.136;14.882;2023-06-05T16:14:49;25.60;54.40
75210;DHT22;63796;53.136;14.882;2023-06-05T16:17:16;25.80;54.10
75210;DHT22;63796;53.136;14.882;2023-06-05T16:19:44;25.40;55.10